createdAt,value
2018-03-30T00:02:17.298Z,0.99
2018-03-30T00:05:20.603Z,0.94
2018-03-30T00:08:23.916Z,0.91
2018-03-30T00:11:29.130Z,0.90
2018-03-30T00:14:32.463Z,0.87
2018-03-30T00:17:36.564Z,0.85
2018-03-30T00:20:39.874Z,0.80
2018-03-30T00:23:43.963Z,0.77
2018-03-30T00:26:47.299Z,0.75
2018-03-30T00:29:51.368Z,0.73
2018-03-30T00:32:54.889Z,0.72
2018-03-30T01:40:59.336Z,0.13
2018-03-30T04:21:43.258Z,-0.70
2018-03-30T07:25:59.153Z,1.10
2018-03-30T07:29:02.504Z,1.19
2018-03-30T07:32:23.777Z,1.26
2018-03-30T07:35:46.555Z,1.35
2018-03-30T07:38:50.105Z,1.46
2018-03-30T07:41:53.435Z,1.55
2018-03-30T07:44:56.769Z,1.64
2018-03-30T07:48:00.091Z,1.75
2018-03-30T07:51:03.412Z,1.84
2018-03-30T07:54:06.734Z,1.90
2018-03-30T07:57:10.827Z,1.99
2018-03-30T08:00:14.134Z,2.08
2018-03-30T08:03:17.469Z,2.20
2018-03-30T08:06:20.792Z,2.31
2018-03-30T08:09:24.112Z,2.41
2018-03-30T08:12:27.417Z,2.48
2018-03-30T08:15:30.753Z,2.53
2018-03-30T08:18:34.093Z,2.60
2018-03-30T08:21:37.400Z,2.70
2018-03-30T08:24:40.715Z,2.74
2018-03-30T08:27:44.033Z,2.76
2018-03-30T08:30:48.123Z,2.77
2018-03-30T08:33:51.429Z,2.73
2018-03-30T08:36:55.517Z,2.83
2018-03-30T08:39:58.845Z,2.96
2018-03-30T08:43:02.913Z,2.95
2018-03-30T08:46:06.241Z,3.00
2018-03-30T08:49:09.563Z,3.10
2018-03-30T08:52:13.651Z,3.23
2018-03-30T08:55:16.950Z,3.39
2018-03-30T08:58:20.273Z,3.55
2018-03-30T09:01:23.591Z,3.65
2018-03-30T09:04:26.882Z,3.71
2018-03-30T09:07:30.199Z,3.87
2018-03-30T09:10:33.504Z,4.02
2018-03-30T09:13:36.826Z,3.98
2018-03-30T09:16:40.126Z,3.94
2018-03-30T09:19:43.445Z,3.87
2018-03-30T09:22:47.508Z,3.88
2018-03-30T09:25:50.822Z,3.86
2018-03-30T09:28:54.122Z,3.81
2018-03-30T09:31:57.434Z,3.81
2018-03-30T09:35:01.523Z,3.74
2018-03-30T09:38:04.818Z,3.78
2018-03-30T09:41:08.126Z,3.80
2018-03-30T09:44:11.418Z,3.85
2018-03-30T09:47:14.734Z,3.72
2018-03-30T09:50:18.794Z,3.64
2018-03-30T09:53:22.110Z,3.60
2018-03-30T09:56:25.415Z,3.63
2018-03-30T09:59:28.728Z,3.61
2018-03-30T10:02:32.023Z,3.68
2018-03-30T10:05:35.338Z,3.77
2018-03-30T10:08:39.410Z,3.76
2018-03-30T10:11:42.728Z,3.76
2018-03-30T10:14:46.055Z,3.80
2018-03-30T10:17:49.352Z,3.87
2018-03-30T10:20:52.666Z,3.92
2018-03-30T10:23:55.979Z,3.93
2018-03-30T10:26:59.319Z,4.04
2018-03-30T10:30:02.645Z,4.09
2018-03-30T10:33:05.938Z,4.06
2018-03-30T10:36:09.262Z,4.07
2018-03-30T10:39:12.559Z,4.07
2018-03-30T10:42:15.874Z,4.08
2018-03-30T10:45:19.189Z,4.08
2018-03-30T10:48:22.515Z,4.07
2018-03-30T10:51:25.807Z,4.09
2018-03-30T10:54:29.123Z,4.06
2018-03-30T10:57:32.422Z,4.11
2018-03-30T11:00:35.734Z,4.14
2018-03-30T11:03:39.027Z,4.22
2018-03-30T11:06:42.339Z,4.34
2018-03-30T11:09:45.657Z,4.42
2018-03-30T11:12:48.975Z,4.56
2018-03-30T11:15:53.051Z,4.62
2018-03-30T11:18:56.342Z,4.70
2018-03-30T11:21:59.672Z,4.77
2018-03-30T11:25:03.730Z,4.74
2018-03-30T11:28:07.047Z,4.70
2018-03-30T11:31:10.343Z,4.70
2018-03-30T11:34:13.686Z,4.68
2018-03-30T11:37:17.746Z,4.62
2018-03-30T11:40:21.062Z,4.56
2018-03-30T11:43:24.378Z,4.51
2018-03-30T11:46:27.693Z,4.49
2018-03-30T11:49:31.751Z,4.42
2018-03-30T11:52:35.079Z,4.36
2018-03-30T11:55:38.365Z,4.21
2018-03-30T11:58:41.678Z,4.16
2018-03-30T12:01:44.996Z,4.15
2018-03-30T12:04:48.306Z,4.13
2018-03-30T12:07:51.608Z,4.19
2018-03-30T12:10:54.935Z,4.19
2018-03-30T12:13:58.231Z,4.16
2018-03-30T12:17:01.542Z,4.15
2018-03-30T12:20:04.871Z,4.02
2018-03-30T12:23:08.934Z,3.97
2018-03-30T12:26:12.242Z,4.00
2018-03-30T12:29:15.567Z,4.05
2018-03-30T12:32:19.642Z,4.17
2018-03-30T12:35:22.930Z,4.31
2018-03-30T12:38:26.246Z,4.49
2018-03-30T12:41:29.546Z,4.59
2018-03-30T12:44:32.885Z,4.66
2018-03-30T12:47:36.180Z,4.59
2018-03-30T12:50:39.490Z,4.62
2018-03-30T12:53:42.787Z,4.62
2018-03-30T12:56:46.102Z,4.64
2018-03-30T12:59:49.394Z,4.68
2018-03-30T13:02:52.713Z,4.65
2018-03-30T13:05:56.007Z,4.74
2018-03-30T13:08:59.327Z,4.77
2018-03-30T13:12:02.638Z,4.83
2018-03-30T13:15:06.698Z,4.71
2018-03-30T13:18:10.004Z,4.60
2018-03-30T13:21:13.302Z,4.49
2018-03-30T13:24:16.614Z,4.48
2018-03-30T13:27:19.907Z,4.57
2018-03-30T13:30:23.214Z,4.62
2018-03-30T13:33:26.506Z,4.62
2018-03-30T13:36:29.828Z,4.62
2018-03-30T13:39:33.883Z,4.68
2018-03-30T13:42:37.194Z,4.64
2018-03-30T13:45:40.484Z,4.58
2018-03-30T13:48:43.814Z,4.51
2018-03-30T13:51:56.470Z,4.44
2018-03-30T13:55:01.243Z,4.42
2018-03-30T13:58:11.146Z,4.42
2018-03-30T14:01:19.211Z,4.45
2018-03-30T14:04:40.004Z,4.51
2018-03-30T14:07:47.982Z,4.52
2018-03-30T14:11:09.996Z,4.49
2018-03-30T14:14:13.323Z,4.54
2018-03-30T14:17:21.768Z,4.51
2018-03-30T14:20:30.519Z,4.51
2018-03-30T14:23:38.994Z,4.50
2018-03-30T14:48:39.103Z,4.44
2018-03-30T14:51:49.251Z,4.37
2018-03-30T14:55:01.355Z,4.42
2018-03-30T15:13:07.549Z,4.53
2018-03-30T15:16:35.627Z,4.67
2018-03-30T15:19:43.697Z,4.74
2018-03-30T15:26:41.981Z,4.58
2018-03-30T15:30:06.778Z,4.56
2018-03-30T15:33:26.989Z,4.58
2018-03-30T15:40:04.404Z,4.73
2018-03-30T15:43:11.100Z,4.79
2018-03-30T15:49:58.147Z,5.00
2018-03-30T15:53:01.473Z,4.95
2018-03-30T15:56:05.590Z,5.03
2018-03-30T15:59:08.930Z,5.00
2018-03-30T16:02:12.992Z,5.10
2018-03-30T16:05:16.314Z,5.05
2018-03-30T16:08:19.615Z,5.28
2018-03-30T16:11:30.134Z,5.51
2018-03-30T16:14:33.447Z,5.65
2018-03-30T16:17:36.770Z,5.84
2018-03-30T16:20:39.283Z,5.89
2018-03-30T16:23:41.807Z,6.11
2018-03-30T16:26:44.342Z,6.13
2018-03-30T16:29:46.868Z,6.03
2018-03-30T16:32:49.419Z,5.93
2018-03-30T16:35:51.925Z,5.69
2018-03-30T16:38:54.464Z,5.36
2018-03-30T16:41:56.975Z,5.03
2018-03-30T16:44:59.503Z,4.77
2018-03-30T16:48:02.011Z,4.50
2018-03-30T16:51:04.539Z,4.20
2018-03-30T16:54:07.437Z,3.98
2018-03-30T16:57:10.748Z,3.85
2018-03-30T17:00:13.480Z,3.69
2018-03-30T17:03:16.016Z,3.53
2018-03-30T17:06:20.324Z,3.49
2018-03-30T17:09:23.599Z,3.41
2018-03-30T17:12:27.824Z,3.35
2018-03-30T17:15:31.165Z,3.29
2018-03-30T17:18:34.470Z,3.23
2018-03-30T17:21:37.012Z,3.21
2018-03-30T17:24:39.538Z,3.17
2018-03-30T17:27:42.048Z,3.08
2018-03-30T17:30:56.267Z,3.06
2018-03-30T17:33:58.935Z,3.03
2018-03-30T17:37:06.865Z,2.96
2018-03-30T17:40:11.151Z,2.89
2018-03-30T17:43:15.355Z,2.81
2018-03-30T17:46:18.887Z,2.74
2018-03-30T17:49:21.406Z,2.66
2018-03-30T17:52:24.695Z,2.66
2018-03-30T17:55:27.215Z,2.61
2018-03-30T17:58:29.805Z,2.58
2018-03-30T18:01:33.062Z,2.57
2018-03-30T18:04:36.339Z,2.54
2018-03-30T18:07:38.854Z,2.50
2018-03-30T18:10:41.358Z,2.45
2018-03-30T18:13:43.882Z,2.41
2018-03-30T18:16:47.150Z,2.39
2018-03-30T18:19:49.672Z,2.33
2018-03-30T18:22:52.186Z,2.29
2018-03-30T18:25:54.706Z,2.31
2018-03-30T18:28:57.222Z,2.31
2018-03-30T18:31:59.726Z,2.23
2018-03-30T18:35:02.248Z,2.22
2018-03-30T18:38:05.523Z,2.26
2018-03-30T18:41:08.048Z,2.22
2018-03-30T18:44:10.590Z,2.21
2018-03-30T18:47:13.095Z,2.21
2018-03-30T18:50:15.650Z,2.18
2018-03-30T18:53:18.147Z,2.19
2018-03-30T18:56:20.646Z,2.15
2018-03-30T18:59:23.179Z,2.10
2018-03-30T19:02:25.702Z,2.10
2018-03-30T19:05:28.211Z,2.13
2018-03-30T19:08:30.734Z,2.11
2018-03-30T19:11:33.266Z,2.11
2018-03-30T19:14:35.780Z,2.08
2018-03-30T19:17:39.087Z,2.06
2018-03-30T19:20:41.587Z,2.04
2018-03-30T19:23:44.106Z,2.04
2018-03-30T19:26:46.602Z,2.05
2018-03-30T19:29:49.882Z,2.06
2018-03-30T19:32:52.406Z,2.06
2018-03-30T19:35:54.926Z,2.04
2018-03-30T19:38:57.448Z,2.04
2018-03-30T19:41:59.982Z,2.00
2018-03-30T19:45:02.489Z,2.00
2018-03-30T19:48:05.774Z,1.97
2018-03-30T19:51:08.285Z,1.94
2018-03-30T19:54:10.803Z,1.91
2018-03-30T19:57:13.303Z,1.90
2018-03-30T20:00:15.827Z,1.92
2018-03-30T20:03:18.350Z,1.89
2018-03-30T20:06:20.866Z,1.87
2018-03-30T20:09:23.366Z,1.86
2018-03-30T20:12:25.886Z,1.88
2018-03-30T20:15:28.423Z,1.86
2018-03-30T20:18:30.928Z,1.88
2018-03-30T20:21:33.452Z,1.89
2018-03-30T20:24:35.975Z,1.88
2018-03-30T20:27:38.475Z,1.84
2018-03-30T20:30:40.998Z,1.85
2018-03-30T20:33:43.541Z,1.85
2018-03-30T20:36:46.064Z,1.85
2018-03-30T20:39:48.567Z,1.87
2018-03-30T20:42:51.083Z,1.86
2018-03-30T20:45:54.369Z,1.85
2018-03-30T20:48:56.887Z,1.81
2018-03-30T20:51:59.411Z,1.81
2018-03-30T20:55:01.939Z,1.82
2018-03-30T20:58:04.456Z,1.83
2018-03-30T21:01:06.966Z,1.84
2018-03-30T21:04:10.254Z,1.85
2018-03-30T21:07:12.758Z,1.87
2018-03-30T21:10:15.283Z,1.87
2018-03-30T21:13:17.802Z,1.84
2018-03-30T21:16:21.070Z,1.86
2018-03-30T21:19:23.598Z,1.87
2018-03-30T21:22:26.098Z,1.85
2018-03-30T21:25:28.615Z,1.87
2018-03-30T21:28:31.118Z,1.87
2018-03-30T21:31:33.639Z,1.90
2018-03-30T21:34:36.166Z,1.87
2018-03-30T21:37:38.683Z,1.89
2018-03-30T21:40:41.186Z,1.90
2018-03-30T21:43:43.723Z,1.89
2018-03-30T21:46:46.227Z,1.85
2018-03-30T21:49:48.746Z,1.86
2018-03-30T21:52:52.016Z,1.87
2018-03-30T21:55:54.542Z,1.89
2018-03-30T21:58:57.067Z,1.88
2018-03-30T22:01:59.578Z,1.86
2018-03-30T22:05:02.866Z,1.89
2018-03-30T22:08:06.142Z,1.86
2018-03-30T22:11:08.662Z,1.86
2018-03-30T22:14:11.162Z,1.87
2018-03-30T22:17:13.691Z,1.90
2018-03-30T22:20:16.194Z,1.88
2018-03-30T22:23:18.710Z,1.87
2018-03-30T22:26:21.243Z,1.84
2018-03-30T22:29:24.541Z,1.80
2018-03-30T22:32:27.838Z,1.77
2018-03-30T22:35:31.102Z,1.76
2018-03-30T22:38:33.650Z,1.78
2018-03-30T22:41:36.145Z,1.78
2018-03-30T22:44:38.671Z,1.77
2018-03-30T22:47:41.174Z,1.76
2018-03-30T22:50:43.700Z,1.75
2018-03-30T22:53:46.201Z,1.73
2018-03-30T22:56:48.722Z,1.73
2018-03-30T22:59:51.226Z,1.73
2018-03-30T23:02:53.751Z,1.71
2018-03-30T23:05:56.246Z,1.71
2018-03-30T23:08:58.778Z,1.71
2018-03-30T23:12:02.042Z,1.72
2018-03-30T23:15:04.563Z,1.71
2018-03-30T23:18:07.846Z,1.72
2018-03-30T23:21:11.110Z,1.74
2018-03-30T23:24:13.627Z,1.79
2018-03-30T23:27:16.914Z,1.77
2018-03-30T23:30:20.190Z,1.78
2018-03-30T23:33:22.714Z,1.76
2018-03-30T23:36:25.242Z,1.75
2018-03-30T23:39:27.767Z,1.75
2018-03-30T23:42:30.271Z,1.78
2018-03-30T23:45:32.790Z,1.77
2018-03-30T23:48:35.299Z,1.76
2018-03-30T23:51:37.825Z,1.75
2018-03-30T23:54:40.326Z,1.80
2018-03-30T23:57:43.618Z,1.79
